createdAt,value
2023-01-11T00:01:10.555Z,100.00
2023-01-11T00:03:37.532Z,100.00
2023-01-11T00:06:08.198Z,100.00
2023-01-11T00:08:35.191Z,100.00
2023-01-11T00:11:04.274Z,100.00
2023-01-11T00:13:34.235Z,100.00
2023-01-11T00:16:09.610Z,100.00
2023-01-11T00:18:37.654Z,100.00
2023-01-11T00:21:09.200Z,100.00
2023-01-11T00:23:37.918Z,100.00
2023-01-11T00:26:12.009Z,100.00
2023-01-11T00:28:39.169Z,100.00
2023-01-11T00:31:06.300Z,100.00
2023-01-11T00:33:37.824Z,100.00
2023-01-11T00:36:05.007Z,100.00
2023-01-11T00:38:54.085Z,100.00
2023-01-11T00:41:41.500Z,100.00
2023-01-11T00:44:29.789Z,100.00
2023-01-11T00:47:16.547Z,100.00
2023-01-11T00:49:44.388Z,100.00
2023-01-11T00:52:12.471Z,100.00
2023-01-11T00:54:42.578Z,100.00
2023-01-11T00:57:09.831Z,100.00
2023-01-11T00:59:42.753Z,100.00
2023-01-11T01:02:11.731Z,100.00
2023-01-11T01:04:42.163Z,100.00
2023-01-11T01:07:12.112Z,100.00
2023-01-11T01:09:38.947Z,100.00
2023-01-11T01:12:12.847Z,100.00
2023-01-11T01:14:41.933Z,100.00
2023-01-11T01:17:09.346Z,100.00
2023-01-11T01:19:38.531Z,100.00
2023-01-11T01:22:05.493Z,100.00
2023-01-11T01:24:33.951Z,100.00
2023-01-11T01:27:01.106Z,100.00
2023-01-11T01:29:28.005Z,100.00
2023-01-11T01:31:55.050Z,100.00
2023-01-11T01:34:22.024Z,100.00
2023-01-11T01:36:48.994Z,100.00
2023-01-11T01:39:18.534Z,100.00
2023-01-11T01:41:45.520Z,100.00
2023-01-11T01:45:03.318Z,100.00
2023-01-11T01:47:49.092Z,100.00
2023-01-11T01:50:36.439Z,100.00
2023-01-11T01:53:35.808Z,100.00
2023-01-11T01:56:08.159Z,100.00
2023-01-11T01:58:51.257Z,100.00
2023-01-11T02:01:37.184Z,100.00
2023-01-11T02:04:12.577Z,100.00
2023-01-11T02:06:40.462Z,100.00
2023-01-11T02:09:29.701Z,100.00
2023-01-11T02:11:58.861Z,100.00
2023-01-11T02:14:27.895Z,100.00
2023-01-11T02:16:57.001Z,100.00
2023-01-11T02:19:54.167Z,100.00
2023-01-11T02:23:11.743Z,100.00
2023-01-11T02:25:46.616Z,100.00
2023-01-11T02:29:20.743Z,100.00
2023-01-11T02:31:58.859Z,100.00
2023-01-11T02:35:01.844Z,100.00
2023-01-11T02:37:47.919Z,100.00
2023-01-11T02:40:37.304Z,100.00
2023-01-11T02:43:48.603Z,100.00
2023-01-11T02:46:43.651Z,100.00
2023-01-11T02:49:35.621Z,100.00
2023-01-11T02:52:21.078Z,100.00
2023-01-11T02:54:55.729Z,100.00
2023-01-11T02:57:29.388Z,100.00
2023-01-11T02:59:58.093Z,100.00
2023-01-11T03:02:27.972Z,100.00
2023-01-11T03:04:54.845Z,100.00
2023-01-11T03:07:52.422Z,100.00
2023-01-11T03:10:43.625Z,100.00
2023-01-11T03:13:31.579Z,100.00
2023-01-11T03:16:25.334Z,100.00
2023-01-11T03:19:22.295Z,100.00
2023-01-11T03:22:25.197Z,100.00
2023-01-11T03:25:40.441Z,100.00
2023-01-11T03:28:39.610Z,100.00
2023-01-11T03:31:21.213Z,100.00
2023-01-11T03:34:40.465Z,100.00
2023-01-11T03:37:38.707Z,100.00
2023-01-11T03:40:30.635Z,100.00
2023-01-11T03:43:12.398Z,100.00
2023-01-11T03:46:01.325Z,100.00
2023-01-11T03:48:37.075Z,100.00
2023-01-11T03:51:09.870Z,100.00
2023-01-11T03:53:39.781Z,100.00
2023-01-11T03:56:11.845Z,100.00
2023-01-11T03:58:41.159Z,100.00
2023-01-11T04:01:11.328Z,100.00
2023-01-11T04:03:38.253Z,100.00
2023-01-11T04:06:05.604Z,100.00
2023-01-11T04:08:35.514Z,100.00
2023-01-11T04:11:07.925Z,100.00
2023-01-11T04:13:37.569Z,100.00
2023-01-11T04:16:07.040Z,100.00
2023-01-11T04:18:33.974Z,100.00
2023-01-11T04:21:03.374Z,100.00
2023-01-11T04:23:32.815Z,100.00
2023-01-11T04:26:01.986Z,100.00
2023-01-11T04:28:28.993Z,100.00
2023-01-11T04:30:57.966Z,100.00
2023-01-11T04:33:24.966Z,100.00
2023-01-11T04:35:51.798Z,100.00
2023-01-11T04:38:18.899Z,100.00
2023-01-11T04:40:48.069Z,100.00
2023-01-11T04:43:15.126Z,100.00
2023-01-11T04:45:44.491Z,100.00
2023-01-11T04:48:11.461Z,100.00
2023-01-11T04:50:38.343Z,100.00
2023-01-11T04:53:08.037Z,100.00
2023-01-11T04:55:37.634Z,100.00
2023-01-11T04:58:04.515Z,100.00
2023-01-11T05:00:33.913Z,100.00
2023-01-11T05:03:00.774Z,100.00
2023-01-11T05:05:27.672Z,100.00
2023-01-11T05:07:55.678Z,100.00
2023-01-11T05:10:25.525Z,100.00
2023-01-11T05:12:52.401Z,100.00
2023-01-11T05:15:19.252Z,100.00
2023-01-11T05:17:55.846Z,100.00
2023-01-11T05:20:22.663Z,100.00
2023-01-11T05:22:49.683Z,100.00
2023-01-11T05:25:16.639Z,100.00
2023-01-11T05:27:45.751Z,100.00
2023-01-11T05:30:13.006Z,100.00
2023-01-11T05:32:39.955Z,100.00
2023-01-11T05:35:10.084Z,100.00
2023-01-11T05:37:38.382Z,100.00
2023-01-11T05:40:07.560Z,100.00
2023-01-11T05:42:36.753Z,100.00
2023-01-11T05:45:22.765Z,100.00
2023-01-11T05:47:53.790Z,100.00
2023-01-11T05:50:20.994Z,100.00
2023-01-11T05:52:47.837Z,100.00
2023-01-11T05:55:14.916Z,100.00
2023-01-11T05:57:43.319Z,100.00
2023-01-11T06:00:14.008Z,100.00
2023-01-11T06:02:43.703Z,100.00
2023-01-11T06:05:10.640Z,100.00
2023-01-11T06:07:37.722Z,100.00
2023-01-11T06:10:07.283Z,100.00
2023-01-11T06:12:34.650Z,100.00
2023-01-11T06:15:01.541Z,100.00
2023-01-11T06:17:28.551Z,100.00
2023-01-11T06:19:55.670Z,100.00
2023-01-11T06:22:27.221Z,100.00
2023-01-11T06:24:54.054Z,100.00
2023-01-11T06:27:25.363Z,100.00
2023-01-11T06:29:55.473Z,100.00
2023-01-11T06:32:22.392Z,100.00
2023-01-11T06:34:49.284Z,100.00
2023-01-11T06:37:16.242Z,100.00
2023-01-11T06:39:43.091Z,100.00
2023-01-11T06:42:10.108Z,100.00
2023-01-11T06:44:37.205Z,100.00
2023-01-11T06:47:07.123Z,100.00
2023-01-11T06:49:36.977Z,100.00
2023-01-11T06:52:03.924Z,100.00
2023-01-11T06:54:33.734Z,100.00
2023-01-11T06:57:00.551Z,100.00
2023-01-11T06:59:29.648Z,100.00
2023-01-11T07:01:56.696Z,100.00
2023-01-11T07:04:23.572Z,100.00
2023-01-11T07:06:54.413Z,100.00
2023-01-11T07:09:21.315Z,100.00
2023-01-11T07:11:48.146Z,100.00
2023-01-11T07:14:19.888Z,100.00
2023-01-11T07:16:52.738Z,100.00
2023-01-11T07:19:22.692Z,100.00
2023-01-11T07:21:49.543Z,100.00
2023-01-11T07:24:16.579Z,100.00
2023-01-11T07:26:43.768Z,100.00
2023-01-11T07:29:11.313Z,100.00
2023-01-11T07:31:38.309Z,100.00
2023-01-11T07:34:10.792Z,100.00
2023-01-11T07:36:39.999Z,100.00
2023-01-11T07:39:09.858Z,100.00
2023-01-11T07:41:55.581Z,100.00
2023-01-11T07:44:22.464Z,100.00
2023-01-11T07:46:49.454Z,100.00
2023-01-11T07:49:18.662Z,100.00
2023-01-11T07:51:45.569Z,100.00
2023-01-11T07:54:12.443Z,100.00
2023-01-11T07:56:39.334Z,100.00
2023-01-11T07:59:06.279Z,100.00
2023-01-11T08:01:33.382Z,100.00
2023-01-11T08:04:00.324Z,100.00
2023-01-11T08:06:27.226Z,100.00
2023-01-11T08:08:58.616Z,100.00
2023-01-11T08:11:43.895Z,100.00
2023-01-11T08:14:29.584Z,100.00
2023-01-11T08:16:56.498Z,100.00
2023-01-11T08:19:25.941Z,100.00
2023-01-11T08:21:52.826Z,100.00
2023-01-11T08:24:22.076Z,100.00
2023-01-11T08:26:49.116Z,100.00
2023-01-11T08:29:15.961Z,100.00
2023-01-11T08:31:47.530Z,100.00
2023-01-11T08:34:17.751Z,100.00
2023-01-11T08:36:44.648Z,100.00
2023-01-11T08:39:14.656Z,100.00
2023-01-11T08:41:43.988Z,100.00
2023-01-11T08:44:15.036Z,100.00
2023-01-11T08:46:41.992Z,100.00
2023-01-11T08:49:12.405Z,100.00
2023-01-11T08:51:41.313Z,100.00
2023-01-11T08:54:13.265Z,100.00
2023-01-11T08:56:42.982Z,100.00
2023-01-11T08:59:12.630Z,100.00
2023-01-11T09:01:42.122Z,100.00
2023-01-11T09:04:23.135Z,100.00
2023-01-11T09:06:53.280Z,100.00
2023-01-11T09:09:22.765Z,100.00
2023-01-11T09:11:56.692Z,100.00
2023-01-11T09:14:26.279Z,100.00
2023-01-11T09:16:54.224Z,100.00
2023-01-11T09:19:21.881Z,100.00
2023-01-11T09:21:48.908Z,100.00
2023-01-11T09:24:18.071Z,100.00
2023-01-11T09:26:45.049Z,100.00
2023-01-11T09:29:12.297Z,100.00
2023-01-11T09:31:41.778Z,100.00
2023-01-11T09:34:12.276Z,100.00
2023-01-11T09:36:40.348Z,100.00
2023-01-11T09:39:14.551Z,100.00
2023-01-11T09:42:17.500Z,100.00
2023-01-11T09:44:58.063Z,100.00
2023-01-11T09:47:30.955Z,100.00
2023-01-11T09:50:07.640Z,100.00
2023-01-11T09:52:42.909Z,100.00
2023-01-11T09:55:20.148Z,100.00
2023-01-11T09:58:29.126Z,100.00
2023-01-11T10:01:36.113Z,100.00
2023-01-11T10:04:22.442Z,100.00
2023-01-11T10:07:51.466Z,100.00
2023-01-11T10:18:34.250Z,100.00
2023-01-11T10:20:02.637Z,100.00
2023-01-11T10:22:42.564Z,100.00
2023-01-11T10:25:34.448Z,100.00
2023-01-11T10:28:13.197Z,100.00
2023-01-11T10:30:51.340Z,100.00
2023-01-11T10:33:45.510Z,100.00
2023-01-11T10:37:02.490Z,100.00
2023-01-11T10:40:03.969Z,100.00
2023-01-11T10:42:45.117Z,100.00
2023-01-11T10:45:43.301Z,100.00
2023-01-11T10:48:36.879Z,100.00
2023-01-11T10:51:29.840Z,100.00
2023-01-11T10:54:20.422Z,100.00
2023-01-11T10:57:04.799Z,100.00
2023-01-11T10:59:42.813Z,100.00
2023-01-11T11:02:26.180Z,100.00
2023-01-11T11:05:11.324Z,100.00
2023-01-11T11:08:14.594Z,100.00
2023-01-11T11:10:55.872Z,100.00
2023-01-11T11:13:46.248Z,100.00
2023-01-11T11:16:22.483Z,100.00
2023-01-11T11:18:55.577Z,100.00
2023-01-11T11:21:39.245Z,100.00
2023-01-11T11:24:22.045Z,100.00
2023-01-11T11:26:58.279Z,100.00
2023-01-11T11:29:30.692Z,100.00
2023-01-11T11:32:02.251Z,100.00
2023-01-11T11:34:32.325Z,100.00
2023-01-11T11:37:00.582Z,100.00
2023-01-11T11:39:31.630Z,100.00
2023-01-11T11:42:10.491Z,100.00
2023-01-11T11:44:37.631Z,100.00
2023-01-11T11:47:14.857Z,100.00
2023-01-11T11:49:42.701Z,100.00
2023-01-11T11:52:16.224Z,100.00
2023-01-11T11:54:52.806Z,100.00
2023-01-11T11:57:28.130Z,100.00
2023-01-11T12:00:24.755Z,100.00
2023-01-11T12:03:06.486Z,100.00
2023-01-11T12:05:36.493Z,100.00
2023-01-11T12:08:03.743Z,100.00
2023-01-11T12:10:32.245Z,100.00
2023-01-11T12:13:04.384Z,100.00
2023-01-11T12:15:34.210Z,100.00
2023-01-11T12:18:33.269Z,100.00
2023-01-11T12:21:20.553Z,100.00
2023-01-11T12:23:48.898Z,100.00
2023-01-11T12:26:29.825Z,100.00
2023-01-11T12:29:09.546Z,100.00
2023-01-11T12:31:49.544Z,100.00
2023-01-11T12:34:44.277Z,100.00
2023-01-11T12:37:52.144Z,100.00
2023-01-11T12:40:42.373Z,100.00
2023-01-11T12:43:49.627Z,100.00
2023-01-11T12:46:33.856Z,100.00
2023-01-11T12:49:20.201Z,100.00
2023-01-11T12:52:01.013Z,100.00
2023-01-11T12:54:51.536Z,100.00
2023-01-11T12:57:29.923Z,100.00
2023-01-11T13:00:11.078Z,100.00
2023-01-11T13:03:01.549Z,100.00
2023-01-11T13:05:35.125Z,100.00
2023-01-11T13:08:46.142Z,100.00
2023-01-11T13:11:48.795Z,100.00
2023-01-11T13:14:36.760Z,100.00
2023-01-11T13:17:41.117Z,100.00
2023-01-11T13:20:48.781Z,100.00
2023-01-11T13:23:57.245Z,100.00
2023-01-11T13:26:39.292Z,100.00
2023-01-11T13:29:17.123Z,100.00
2023-01-11T13:31:46.989Z,100.00
2023-01-11T13:34:35.704Z,100.00
2023-01-11T13:37:26.356Z,100.00
2023-01-11T13:39:58.802Z,100.00
2023-01-11T13:42:39.074Z,100.00
2023-01-11T13:45:26.647Z,100.00
2023-01-11T13:48:18.243Z,100.00
2023-01-11T13:51:01.994Z,100.00
2023-01-11T13:53:39.300Z,100.00
2023-01-11T13:56:32.019Z,100.00
2023-01-11T13:59:04.051Z,100.00
2023-01-11T14:02:00.905Z,100.00
2023-01-11T14:04:48.972Z,99.96
2023-01-11T14:08:01.021Z,97.72
2023-01-11T14:10:58.635Z,96.67
2023-01-11T14:14:07.664Z,97.86
2023-01-11T14:17:11.646Z,97.58
2023-01-11T14:20:13.396Z,96.15
2023-01-11T14:22:58.141Z,95.53
2023-01-11T14:25:30.600Z,95.14
2023-01-11T14:28:28.044Z,95.57
2023-01-11T14:31:24.060Z,96.02
2023-01-11T14:34:09.391Z,95.35
2023-01-11T14:37:05.705Z,96.06
2023-01-11T14:40:13.031Z,95.71
2023-01-11T14:43:26.926Z,95.86
2023-01-11T14:46:34.291Z,96.06
2023-01-11T14:49:17.713Z,94.89
2023-01-11T14:51:44.511Z,96.18
2023-01-11T14:54:19.701Z,96.04
2023-01-11T14:56:52.233Z,96.15
2023-01-11T14:59:31.306Z,95.19
2023-01-11T15:02:06.012Z,95.01
2023-01-11T15:04:58.789Z,95.93
2023-01-11T15:07:33.966Z,96.88
2023-01-11T15:10:22.799Z,97.05
2023-01-11T15:12:49.831Z,97.00
2023-01-11T15:15:23.003Z,96.45
2023-01-11T15:18:18.480Z,95.67
2023-01-11T15:21:05.327Z,96.34
2023-01-11T15:23:40.676Z,95.70
2023-01-11T15:26:18.187Z,93.77
2023-01-11T15:28:52.222Z,93.97
2023-01-11T15:31:41.037Z,93.37
2023-01-11T15:34:21.971Z,93.88
2023-01-11T15:36:54.912Z,94.11
2023-01-11T15:39:36.000Z,93.55
2023-01-11T15:42:33.249Z,95.79
2023-01-11T15:46:33.490Z,96.89
2023-01-11T15:49:47.390Z,96.85
2023-01-11T15:52:50.399Z,96.84
2023-01-11T15:55:32.195Z,97.50
2023-01-11T15:58:20.703Z,97.30
2023-01-11T16:00:58.617Z,97.18
2023-01-11T16:04:00.761Z,97.58
2023-01-11T16:06:38.555Z,95.92
2023-01-11T16:10:01.260Z,96.14
2023-01-11T16:12:50.193Z,95.81
2023-01-11T16:15:44.297Z,95.21
2023-01-11T16:18:23.483Z,96.70
2023-01-11T16:21:03.434Z,96.19
2023-01-11T16:23:34.393Z,95.13
2023-01-11T16:26:02.717Z,94.16
2023-01-11T16:28:31.928Z,94.83
2023-01-11T16:31:05.636Z,94.86
2023-01-11T16:33:34.714Z,94.52
2023-01-11T16:36:21.361Z,94.44
2023-01-11T16:39:01.778Z,94.14
2023-01-11T16:41:55.457Z,93.95
2023-01-11T16:44:45.886Z,94.23
2023-01-11T16:47:17.612Z,95.20
2023-01-11T16:49:52.503Z,96.37
2023-01-11T16:52:28.304Z,97.63
2023-01-11T16:55:00.388Z,97.66
2023-01-11T16:57:39.917Z,98.97
2023-01-11T17:00:35.921Z,97.84
2023-01-11T17:03:23.985Z,98.04
2023-01-11T17:06:12.836Z,97.69
2023-01-11T17:08:50.628Z,97.43
2023-01-11T17:11:30.125Z,98.23
2023-01-11T17:14:46.784Z,98.05
2023-01-11T17:17:16.625Z,98.99
2023-01-11T17:19:50.776Z,98.06
2023-01-11T17:22:23.710Z,97.24
2023-01-11T17:24:55.832Z,97.56
2023-01-11T17:27:47.797Z,99.50
2023-01-11T17:30:20.572Z,100.00
2023-01-11T17:32:54.740Z,100.00
2023-01-11T17:35:27.294Z,99.24
2023-01-11T17:38:04.585Z,99.53
2023-01-11T17:40:40.306Z,99.19
2023-01-11T17:43:40.101Z,99.79
2023-01-11T17:46:14.460Z,98.88
2023-01-11T17:49:00.747Z,98.17
2023-01-11T17:51:39.611Z,98.80
2023-01-11T17:54:19.527Z,100.00
2023-01-11T17:56:57.001Z,99.12
2023-01-11T17:59:32.417Z,98.74
2023-01-11T18:02:15.182Z,98.69
2023-01-11T18:04:45.842Z,97.65
2023-01-11T18:07:18.408Z,98.09
2023-01-11T18:09:50.874Z,96.83
2023-01-11T18:12:29.087Z,96.88
2023-01-11T18:14:57.002Z,96.83
2023-01-11T18:17:36.845Z,96.54
2023-01-11T18:20:29.359Z,95.87
2023-01-11T18:23:26.896Z,97.55
2023-01-11T18:26:29.341Z,98.59
2023-01-11T18:28:56.498Z,98.31
2023-01-11T18:31:26.840Z,97.58
2023-01-11T18:33:53.993Z,97.77
2023-01-11T18:36:26.028Z,98.06
2023-01-11T18:38:55.734Z,97.40
2023-01-11T18:41:43.161Z,96.05
2023-01-11T18:44:13.279Z,95.79
2023-01-11T18:46:43.109Z,95.34
2023-01-11T18:49:10.098Z,96.13
2023-01-11T18:51:40.484Z,95.54
2023-01-11T18:54:15.488Z,96.03
2023-01-11T18:56:42.435Z,97.35
2023-01-11T18:59:14.927Z,97.02
2023-01-11T19:01:56.443Z,96.98
2023-01-11T19:04:28.243Z,97.46
2023-01-11T19:06:55.378Z,98.22
2023-01-11T19:09:22.245Z,97.66
2023-01-11T19:11:49.186Z,97.70
2023-01-11T19:14:20.701Z,98.00
2023-01-11T19:16:48.417Z,98.57
2023-01-11T19:19:15.723Z,97.83
2023-01-11T19:21:42.728Z,96.72
2023-01-11T19:24:09.740Z,95.96
2023-01-11T19:26:39.848Z,97.28
2023-01-11T19:29:07.870Z,97.41
2023-01-11T19:31:34.726Z,96.99
2023-01-11T19:34:01.637Z,96.20
2023-01-11T19:36:32.197Z,96.83
2023-01-11T19:38:59.175Z,96.66
2023-01-11T19:41:26.146Z,97.10
2023-01-11T19:43:53.737Z,96.78
2023-01-11T19:46:31.033Z,95.83
2023-01-11T19:48:58.690Z,97.19
2023-01-11T19:51:25.930Z,95.24
2023-01-11T19:53:53.036Z,94.84
2023-01-11T19:56:20.051Z,96.00
2023-01-11T19:58:49.511Z,97.33
2023-01-11T20:01:17.015Z,95.98
2023-01-11T20:03:46.479Z,97.12
2023-01-11T20:06:15.469Z,96.95
2023-01-11T20:08:42.775Z,97.37
2023-01-11T20:11:13.076Z,97.31
2023-01-11T20:13:40.136Z,97.03
2023-01-11T20:16:12.911Z,97.28
2023-01-11T20:18:45.170Z,96.96
2023-01-11T20:21:13.582Z,97.20
2023-01-11T20:23:43.443Z,96.08
2023-01-11T20:26:22.756Z,95.47
2023-01-11T20:28:59.761Z,95.38
2023-01-11T20:31:31.618Z,95.33
2023-01-11T20:34:00.237Z,95.65
2023-01-11T20:36:30.211Z,96.32
2023-01-11T20:38:59.777Z,96.66
2023-01-11T20:41:46.501Z,97.03
2023-01-11T20:44:21.625Z,96.97
2023-01-11T20:46:49.095Z,96.32
2023-01-11T20:49:17.482Z,95.38
2023-01-11T20:51:47.998Z,96.07
2023-01-11T20:54:22.903Z,95.86
2023-01-11T20:56:52.442Z,95.15
2023-01-11T20:59:21.989Z,95.87
2023-01-11T21:01:50.321Z,95.36
2023-01-11T21:04:20.635Z,96.40
2023-01-11T21:06:51.623Z,97.36
2023-01-11T21:09:18.777Z,97.28
2023-01-11T21:11:53.081Z,97.99
2023-01-11T21:14:21.835Z,96.92
2023-01-11T21:16:48.894Z,96.75
2023-01-11T21:19:16.193Z,97.02
2023-01-11T21:21:43.136Z,97.29
2023-01-11T21:24:14.017Z,97.50
2023-01-11T21:26:48.240Z,97.07
2023-01-11T21:29:15.284Z,98.10
2023-01-11T21:31:47.843Z,97.02
2023-01-11T21:34:17.041Z,96.11
2023-01-11T21:36:44.173Z,96.57
2023-01-11T21:39:14.554Z,96.76
2023-01-11T21:41:58.805Z,97.79
2023-01-11T21:44:37.991Z,97.79
2023-01-11T21:47:06.484Z,98.54
2023-01-11T21:49:33.714Z,98.63
2023-01-11T21:52:06.972Z,97.82
2023-01-11T21:54:38.286Z,98.14
2023-01-11T21:57:07.364Z,97.22
2023-01-11T21:59:35.810Z,98.54
2023-01-11T22:02:02.637Z,98.44
2023-01-11T22:04:32.581Z,98.43
2023-01-11T22:07:00.071Z,98.21
2023-01-11T22:09:28.299Z,98.16
2023-01-11T22:11:55.532Z,98.03
2023-01-11T22:14:25.000Z,97.83
2023-01-11T22:16:52.972Z,97.85
2023-01-11T22:19:27.571Z,97.60
2023-01-11T22:21:57.933Z,97.84
2023-01-11T22:24:27.451Z,96.51
2023-01-11T22:26:54.377Z,96.88
2023-01-11T22:29:24.110Z,96.82
2023-01-11T22:31:56.181Z,96.50
2023-01-11T22:34:23.807Z,96.23
2023-01-11T22:36:50.757Z,97.61
2023-01-11T22:39:19.559Z,96.83
2023-01-11T22:41:50.122Z,96.40
2023-01-11T22:44:17.829Z,96.81
2023-01-11T22:46:47.349Z,95.60
2023-01-11T22:49:14.758Z,96.05
2023-01-11T22:51:45.284Z,96.55
2023-01-11T22:54:12.865Z,95.90
2023-01-11T22:56:40.965Z,96.00
2023-01-11T22:59:08.243Z,94.81
2023-01-11T23:01:38.520Z,94.70
2023-01-11T23:04:14.527Z,94.72
2023-01-11T23:06:42.673Z,94.35
2023-01-11T23:09:16.607Z,94.48
2023-01-11T23:12:05.409Z,95.49
2023-01-11T23:14:35.435Z,94.93
2023-01-11T23:17:06.790Z,95.22
2023-01-11T23:19:40.810Z,95.72
2023-01-11T23:22:11.486Z,95.03
2023-01-11T23:24:39.087Z,95.00
2023-01-11T23:27:06.257Z,96.07
2023-01-11T23:29:33.188Z,95.88
2023-01-11T23:32:04.998Z,96.24
2023-01-11T23:34:34.411Z,95.77
2023-01-11T23:37:01.240Z,95.06
2023-01-11T23:39:28.090Z,96.29
2023-01-11T23:42:13.277Z,95.54
2023-01-11T23:44:42.731Z,96.62
2023-01-11T23:47:25.550Z,96.66
2023-01-11T23:49:55.447Z,96.73
2023-01-11T23:52:30.574Z,98.90
2023-01-11T23:54:57.733Z,100.00
2023-01-11T23:57:26.973Z,100.00
2023-01-11T23:59:53.927Z,100.00
